Time,TemperatureF,DewpointF,PressureIn,WindDirection,WindDirectionDegrees,WindSpeedMPH,WindSpeedGustMPH,Humidity,HourlyPrecipIn,Conditions,Clouds,dailyrainin,SolarRadiationWatts/m^2,SoftwareType,DateUTC
2013-08-26 00:02:00,66.2,63.5,30.33,North,-999,-999.0,0.0,91,0.00,,OVC060,0.00,0.00,VWS V14.01,2013-08-26 04:02:00,
2013-08-26 00:17:00,66.2,63.5,30.33,North,-999,-999.0,0.0,91,0.00,,OVC060,0.00,0.00,VWS V14.01,2013-08-26 04:17:00,
2013-08-26 00:32:00,66.4,63.7,30.33,North,-999,-999.0,0.0,91,0.00,,OVC060,0.00,0.00,VWS V14.01,2013-08-26 04:32:00,
2013-08-26 00:47:00,66.1,63.4,30.32,North,-999,-999.0,0.0,91,0.00,,OVC060,0.00,0.00,VWS V14.01,2013-08-26 04:47:00,
2013-08-26 01:02:00,65.9,63.5,30.32,North,-999,-999.0,0.0,92,0.00,,OVC060,0.00,0.00,VWS V14.01,2013-08-26 05:02:00,
2013-08-26 01:17:00,65.6,62.9,30.32,North,-999,-999.0,0.0,91,0.00,,OVC060,0.00,0.00,VWS V14.01,2013-08-26 05:17:00,
2013-08-26 01:32:00,65.2,62.8,30.31,North,-999,-999.0,0.0,92,0.00,,OVC060,0.00,0.00,VWS V14.01,2013-08-26 05:32:00,
2013-08-26 01:47:00,65.0,62.6,30.31,North,-999,-999.0,0.0,92,0.00,,OVC060,0.00,0.00,VWS V14.01,2013-08-26 05:47:00,
2013-08-26 02:02:00,64.7,62.3,30.31,North,-999,-999.0,0.0,92,0.00,,FEW060,0.00,0.00,VWS V14.01,2013-08-26 06:02:00,
2013-08-26 02:17:00,64.5,62.1,30.31,North,-999,-999.0,0.0,92,0.00,,FEW060,0.00,0.00,VWS V14.01,2013-08-26 06:17:00,
2013-08-26 02:32:00,64.2,61.8,30.30,North,-999,-999.0,0.0,92,0.00,,FEW060,0.00,0.00,VWS V14.01,2013-08-26 06:32:00,
2013-08-26 02:47:00,64.2,61.8,30.30,North,-999,-999.0,0.0,92,0.00,,FEW060,0.00,0.00,VWS V14.01,2013-08-26 06:47:00,
2013-08-26 03:02:00,63.6,61.2,30.30,North,-999,-999.0,0.0,92,0.00,,CLR,0.00,0.00,VWS V14.01,2013-08-26 07:02:00,
2013-08-26 03:17:00,63.3,60.9,30.29,North,-999,-999.0,0.0,92,0.00,,CLR,0.00,0.00,VWS V14.01,2013-08-26 07:17:00,
2013-08-26 03:32:00,63.3,60.9,30.29,North,-999,-999.0,0.0,92,0.00,,CLR,0.00,0.00,VWS V14.01,2013-08-26 07:32:00,
2013-08-26 03:47:00,63.2,60.8,30.29,North,-999,-999.0,0.0,92,0.00,,CLR,0.00,0.00,VWS V14.01,2013-08-26 07:47:00,
2013-08-26 04:02:00,63.1,60.7,30.29,North,-999,-999.0,0.0,92,0.00,,BKN042,0.00,0.00,VWS V14.01,2013-08-26 08:02:00,
2013-08-26 04:17:00,63.2,60.8,30.29,North,-999,-999.0,0.0,92,0.00,,BKN042,0.00,0.00,VWS V14.01,2013-08-26 08:17:00,
2013-08-26 04:32:00,63.1,60.7,30.29,North,-999,-999.0,0.0,92,0.00,,BKN042,0.00,0.00,VWS V14.01,2013-08-26 08:32:00,
2013-08-26 04:47:00,63.0,60.6,30.29,North,-999,-999.0,0.0,92,0.00,,BKN042,0.00,0.00,VWS V14.01,2013-08-26 08:47:00,
2013-08-26 05:02:00,62.9,60.5,30.29,North,-999,-999.0,0.0,92,0.00,,CLR,0.00,0.00,VWS V14.01,2013-08-26 09:02:00,
2013-08-26 05:17:00,62.7,60.3,30.29,North,-999,-999.0,0.0,92,0.00,,CLR,0.00,0.00,VWS V14.01,2013-08-26 09:17:00,
2013-08-26 05:32:00,62.5,60.2,30.28,North,-999,-999.0,0.0,92,0.00,,CLR,0.00,0.00,VWS V14.01,2013-08-26 09:32:00,
2013-08-26 05:47:00,62.4,60.0,30.28,North,-999,-999.0,0.0,92,0.00,,CLR,0.00,0.00,VWS V14.01,2013-08-26 09:47:00,
2013-08-26 06:02:00,62.2,59.5,30.28,North,-999,-999.0,0.0,91,0.00,,CLR,0.00,0.00,VWS V14.01,2013-08-26 10:02:00,
2013-08-26 06:17:00,62.1,59.8,30.28,North,-999,-999.0,0.0,92,0.00,,CLR,0.00,0.00,VWS V14.01,2013-08-26 10:17:00,
2013-08-26 06:32:00,62.0,59.7,30.28,North,-999,-999.0,0.0,92,0.00,,CLR,0.00,0.00,VWS V14.01,2013-08-26 10:32:00,
2013-08-26 06:47:00,61.9,59.5,30.29,North,-999,-999.0,0.0,92,0.00,,CLR,0.00,0.00,VWS V14.01,2013-08-26 10:47:00,
2013-08-26 07:02:00,61.8,59.5,30.29,North,-999,-999.0,0.0,92,0.00,,BKN055,0.00,0.00,VWS V14.01,2013-08-26 11:02:00,
2013-08-26 07:17:00,61.8,59.2,30.29,North,-999,-999.0,0.0,91,0.00,,BKN055,0.00,0.00,VWS V14.01,2013-08-26 11:17:00,
2013-08-26 07:32:00,61.6,59.0,30.29,North,-999,-999.0,0.0,91,0.00,,BKN055,0.00,7.00,VWS V14.01,2013-08-26 11:32:00,
2013-08-26 07:47:00,61.4,59.1,30.29,North,-999,-999.0,0.0,92,0.00,,BKN055,0.00,12.00,VWS V14.01,2013-08-26 11:47:00,
2013-08-26 08:02:00,61.4,59.1,30.29,North,-999,-999.0,0.0,92,0.00,,CLR,0.00,16.00,VWS V14.01,2013-08-26 12:02:00,
2013-08-26 08:17:00,61.5,59.2,30.30,North,-999,-999.0,0.0,92,0.00,,CLR,0.00,26.00,VWS V14.01,2013-08-26 12:17:00,
2013-08-26 08:32:00,61.9,59.5,30.30,North,-999,-999.0,0.0,92,0.00,,CLR,0.00,33.00,VWS V14.01,2013-08-26 12:32:00,
2013-08-26 08:47:00,62.4,60.0,30.30,North,-999,-999.0,0.0,92,0.00,,CLR,0.00,42.00,VWS V14.01,2013-08-26 12:47:00,
2013-08-26 09:02:00,63.2,60.8,30.31,North,-999,-999.0,0.0,92,0.00,,CLR,0.00,47.00,VWS V14.01,2013-08-26 13:02:00,
2013-08-26 09:17:00,63.8,61.7,30.31,North,-999,-999.0,0.0,93,0.00,,CLR,0.00,67.00,VWS V14.01,2013-08-26 13:17:00,
2013-08-26 09:32:00,64.6,62.5,30.30,North,-999,-999.0,0.0,93,0.00,,CLR,0.00,58.00,VWS V14.01,2013-08-26 13:32:00,
2013-08-26 09:47:00,65.3,63.2,30.31,North,-999,-999.0,0.0,93,0.00,,CLR,0.00,62.00,VWS V14.01,2013-08-26 13:47:00,
2013-08-26 10:02:00,65.9,63.8,30.31,North,-999,-999.0,0.0,93,0.00,,CLR,0.00,67.00,VWS V14.01,2013-08-26 14:02:00,
2013-08-26 10:17:00,66.7,64.3,30.31,North,-999,-999.0,0.0,92,0.00,,CLR,0.00,76.00,VWS V14.01,2013-08-26 14:17:00,
2013-08-26 10:32:00,69.4,63.7,30.31,North,-999,-999.0,0.0,82,0.00,,CLR,0.00,541.00,VWS V14.01,2013-08-26 14:32:00,
2013-08-26 10:47:00,71.8,64.9,30.31,North,-999,-999.0,0.0,79,0.00,,CLR,0.00,355.00,VWS V14.01,2013-08-26 14:47:00,
2013-08-26 11:02:00,71.6,66.2,30.31,North,-999,-999.0,0.0,83,0.00,,CLR,0.00,582.00,VWS V14.01,2013-08-26 15:02:00,
2013-08-26 11:17:00,73.4,63.4,30.31,North,-999,-999.0,1.0,71,0.00,,CLR,0.00,705.00,VWS V14.01,2013-08-26 15:17:00,
2013-08-26 11:33:00,73.9,63.5,30.31,North,-999,-999.0,4.0,70,0.00,,CLR,0.00,127.00,VWS V14.01,2013-08-26 15:33:00,
2013-08-26 11:47:00,72.6,65.3,30.31,North,-999,-999.0,1.0,78,0.00,,CLR,0.00,786.00,VWS V14.01,2013-08-26 15:47:00,
2013-08-26 12:02:00,73.3,64.9,30.30,North,-999,-999.0,1.0,75,0.00,,CLR,0.00,807.00,VWS V14.01,2013-08-26 16:02:00,
2013-08-26 12:17:00,74.7,67.8,30.29,North,-999,-999.0,0.0,79,0.00,,CLR,0.00,765.00,VWS V14.01,2013-08-26 16:17:00,
2013-08-26 12:32:00,74.4,67.1,30.29,North,-999,-999.0,1.0,78,0.00,,CLR,0.00,842.00,VWS V14.01,2013-08-26 16:32:00,
2013-08-26 12:47:00,76.1,66.0,30.28,North,-999,-999.0,4.0,71,0.00,,CLR,0.00,879.00,VWS V14.01,2013-08-26 16:47:00,
2013-08-26 13:02:00,76.1,64.4,30.27,North,-999,-999.0,1.0,67,0.00,,CLR,0.00,881.00,VWS V14.01,2013-08-26 17:02:00,
2013-08-26 13:17:00,76.4,67.5,30.27,North,-999,-999.0,1.0,74,0.00,,CLR,0.00,893.00,VWS V14.01,2013-08-26 17:17:00,
2013-08-26 13:32:00,78.0,66.2,30.26,North,-999,-999.0,2.0,67,0.00,,CLR,0.00,896.00,VWS V14.01,2013-08-26 17:32:00,
2013-08-26 13:47:00,78.5,69.1,30.26,North,-999,-999.0,2.0,73,0.00,,CLR,0.00,939.00,VWS V14.01,2013-08-26 17:47:00,
2013-08-26 14:02:00,76.4,66.7,30.25,North,-999,-999.0,2.0,72,0.00,,CLR,0.00,573.00,VWS V14.01,2013-08-26 18:02:00,
2013-08-26 14:17:00,76.4,66.3,30.25,North,-999,-999.0,2.0,71,0.00,,CLR,0.00,121.00,VWS V14.01,2013-08-26 18:17:00,
2013-08-26 14:32:00,76.4,67.9,30.24,North,-999,-999.0,1.0,75,0.00,,CLR,0.00,62.00,VWS V14.01,2013-08-26 18:32:00,
2013-08-26 14:47:00,76.7,66.6,30.24,North,-999,-999.0,1.0,71,0.00,,CLR,0.00,167.00,VWS V14.01,2013-08-26 18:47:00,
2013-08-26 15:02:00,76.0,65.9,30.22,North,-999,-999.0,2.0,71,0.00,,CLR,0.00,83.00,VWS V14.01,2013-08-26 19:02:00,
2013-08-26 15:17:00,76.1,67.6,30.21,North,-999,-999.0,1.0,75,0.00,,CLR,0.00,91.00,VWS V14.01,2013-08-26 19:17:00,
2013-08-26 15:32:00,76.4,67.1,30.21,North,-999,-999.0,3.0,73,0.00,,CLR,0.00,95.00,VWS V14.01,2013-08-26 19:32:00,
2013-08-26 15:47:00,76.8,67.5,30.20,North,-999,-999.0,3.0,73,0.00,,CLR,0.00,93.00,VWS V14.01,2013-08-26 19:47:00,
2013-08-26 16:02:00,77.5,65.3,30.19,North,-999,-999.0,3.0,66,0.00,,CLR,0.00,67.00,VWS V14.01,2013-08-26 20:02:00,
2013-08-26 16:17:00,76.8,67.9,30.19,North,-999,-999.0,1.0,74,0.00,,CLR,0.00,58.00,VWS V14.01,2013-08-26 20:17:00,
2013-08-26 16:32:00,77.4,66.9,30.18,North,-999,-999.0,3.0,70,0.00,,CLR,0.00,86.00,VWS V14.01,2013-08-26 20:32:00,
2013-08-26 16:47:00,76.3,68.2,30.18,North,-999,-999.0,1.0,76,0.00,,CLR,0.00,209.00,VWS V14.01,2013-08-26 20:47:00,
2013-08-26 17:02:00,75.9,68.2,30.17,North,-999,-999.0,1.0,77,0.00,,CLR,0.00,77.00,VWS V14.01,2013-08-26 21:02:00,
2013-08-26 17:17:00,75.2,68.2,30.17,North,-999,-999.0,0.0,79,0.00,,CLR,0.00,40.00,VWS V14.01,2013-08-26 21:17:00,
2013-08-26 17:32:00,75.1,68.2,30.17,North,-999,-999.0,1.0,79,0.00,,CLR,0.00,37.00,VWS V14.01,2013-08-26 21:32:00,
2013-08-26 17:47:00,74.8,70.0,30.16,North,-999,-999.0,0.0,85,0.00,,CLR,0.00,32.00,VWS V14.01,2013-08-26 21:47:00,
2013-08-26 18:02:00,74.4,69.3,30.16,North,-999,-999.0,0.0,84,0.00,,CLR,0.00,26.00,VWS V14.01,2013-08-26 22:02:00,
2013-08-26 18:17:00,74.2,67.6,30.16,North,-999,-999.0,0.0,80,0.00,,CLR,0.00,23.00,VWS V14.01,2013-08-26 22:17:00,
2013-08-26 18:32:00,73.8,67.6,30.16,North,-999,-999.0,0.0,81,0.00,,CLR,0.00,19.00,VWS V14.01,2013-08-26 22:32:00,
2013-08-26 18:47:00,73.6,67.4,30.15,North,-999,-999.0,0.0,81,0.00,,CLR,0.00,16.00,VWS V14.01,2013-08-26 22:47:00,
2013-08-26 19:02:00,73.2,67.4,30.15,North,-999,-999.0,0.0,82,0.00,,CLR,0.00,14.00,VWS V14.01,2013-08-26 23:02:00,
2013-08-26 19:17:00,72.5,67.1,30.14,North,-999,-999.0,0.0,83,0.00,,CLR,0.00,11.00,VWS V14.01,2013-08-26 23:17:00,
2013-08-26 19:32:00,72.1,67.3,30.15,North,-999,-999.0,0.0,85,0.00,,CLR,0.00,7.00,VWS V14.01,2013-08-26 23:32:00,
2013-08-26 19:47:00,71.6,67.2,30.14,North,-999,-999.0,0.0,86,0.00,,CLR,0.00,5.00,VWS V14.01,2013-08-26 23:47:00,
2013-08-26 20:02:00,71.1,66.7,30.14,North,-999,-999.0,0.0,86,0.00,,CLR,0.00,0.00,VWS V14.01,2013-08-27 00:02:00,
2013-08-26 20:17:00,70.4,66.3,30.14,North,-999,-999.0,0.0,87,0.00,,CLR,0.00,0.00,VWS V14.01,2013-08-27 00:17:00,
2013-08-26 20:32:00,70.0,66.3,30.14,North,-999,-999.0,0.0,88,0.00,,CLR,0.00,0.00,VWS V14.01,2013-08-27 00:32:00,
2013-08-26 20:47:00,69.7,66.3,30.14,North,-999,-999.0,0.0,89,0.00,,CLR,0.00,0.00,VWS V14.01,2013-08-27 00:47:00,
2013-08-26 21:02:00,69.5,66.4,30.14,North,-999,-999.0,0.0,90,0.00,,CLR,0.00,0.00,VWS V14.01,2013-08-27 01:02:00,
2013-08-26 21:17:00,69.2,66.2,30.14,North,-999,-999.0,0.0,90,0.00,,CLR,0.00,0.00,VWS V14.01,2013-08-27 01:17:00,
2013-08-26 21:32:00,69.0,65.9,30.15,North,-999,-999.0,0.0,90,0.00,,CLR,0.00,0.00,VWS V14.01,2013-08-27 01:32:00,
2013-08-26 21:47:00,68.7,66.0,30.15,North,-999,-999.0,0.0,91,0.00,,CLR,0.00,0.00,VWS V14.01,2013-08-27 01:47:00,
2013-08-26 22:02:00,68.4,65.7,30.15,North,-999,-999.0,0.0,91,0.00,,CLR,0.00,0.00,VWS V14.01,2013-08-27 02:02:00,
2013-08-26 22:17:00,68.2,65.5,30.15,North,-999,-999.0,0.0,91,0.00,,CLR,0.00,0.00,VWS V14.01,2013-08-27 02:17:00,
2013-08-26 22:32:00,67.9,65.5,30.15,North,-999,-999.0,0.0,92,0.00,,CLR,0.00,0.00,VWS V14.01,2013-08-27 02:32:00,
2013-08-26 22:47:00,67.7,65.3,30.15,North,-999,-999.0,0.0,92,0.00,,CLR,0.00,0.00,VWS V14.01,2013-08-27 02:47:00,
2013-08-26 23:02:00,67.6,65.2,30.16,North,-999,-999.0,0.0,92,0.00,,CLR,0.00,0.00,VWS V14.01,2013-08-27 03:02:00,
2013-08-26 23:17:00,67.6,65.2,30.16,North,-999,-999.0,0.0,92,0.00,,CLR,0.00,0.00,VWS V14.01,2013-08-27 03:17:00,
2013-08-26 23:32:00,67.5,65.1,30.16,North,-999,-999.0,0.0,92,0.00,,CLR,0.00,0.00,VWS V14.01,2013-08-27 03:32:00,
2013-08-26 23:47:00,67.6,65.2,30.17,North,-999,-999.0,0.0,92,0.00,,CLR,0.00,0.00,VWS V14.01,2013-08-27 03:47:00,